createdAt,value
2022-10-14T00:01:35.324Z,39.90
2022-10-14T00:04:02.801Z,39.15
2022-10-14T00:06:32.968Z,41.75
2022-10-14T00:09:01.492Z,40.70
2022-10-14T00:11:31.900Z,41.40
2022-10-14T00:14:00.918Z,41.38
2022-10-14T00:16:30.788Z,39.17
2022-10-14T00:18:59.809Z,42.00
2022-10-14T00:21:27.927Z,39.47
2022-10-14T00:23:55.733Z,38.83
2022-10-14T00:26:26.548Z,38.65
2022-10-14T00:28:54.103Z,39.58
2022-10-14T00:31:22.631Z,39.30
2022-10-14T00:33:50.041Z,38.97
2022-10-14T00:36:20.716Z,41.50
2022-10-14T00:38:48.498Z,39.67
2022-10-14T00:41:18.178Z,38.17
2022-10-14T00:43:59.826Z,41.72
2022-10-14T00:46:28.675Z,38.35
2022-10-14T00:49:06.238Z,37.88
2022-10-14T00:51:35.408Z,38.05
2022-10-14T00:54:03.108Z,37.15
2022-10-14T00:56:31.255Z,36.75
2022-10-14T00:58:59.132Z,35.80
2022-10-14T01:01:26.507Z,36.08
2022-10-14T01:03:53.842Z,34.83
2022-10-14T01:06:26.085Z,32.35
2022-10-14T01:09:00.483Z,33.25
2022-10-14T01:11:35.520Z,33.28
2022-10-14T01:14:12.226Z,35.08
2022-10-14T01:16:46.305Z,32.22
2022-10-14T01:19:29.749Z,30.70
2022-10-14T01:22:01.171Z,23.35
2022-10-14T01:24:54.417Z,29.10
2022-10-14T01:27:49.544Z,29.95
2022-10-14T01:32:55.602Z,29.38
2022-10-14T01:35:32.134Z,35.85
2022-10-14T01:38:01.425Z,32.60
2022-10-14T01:40:34.478Z,34.47
2022-10-14T01:43:03.287Z,37.67
2022-10-14T01:45:35.647Z,37.90
2022-10-14T01:48:05.402Z,39.72
2022-10-14T01:50:34.395Z,36.65
2022-10-14T01:53:04.405Z,37.08
2022-10-14T01:55:35.050Z,37.28
2022-10-14T01:58:02.753Z,38.47
2022-10-14T02:00:30.371Z,37.65
2022-10-14T02:03:03.540Z,37.20
2022-10-14T02:05:36.060Z,37.10
2022-10-14T02:08:08.886Z,35.00
2022-10-14T02:10:47.483Z,32.58
2022-10-14T02:13:25.522Z,34.55
2022-10-14T02:15:59.264Z,34.58
2022-10-14T02:18:36.627Z,34.65
2022-10-14T02:21:11.179Z,32.88
2022-10-14T02:23:42.664Z,33.80
2022-10-14T02:26:10.385Z,32.33
2022-10-14T02:28:38.613Z,32.58
2022-10-14T02:31:08.126Z,32.72
2022-10-14T02:33:41.192Z,32.05
2022-10-14T02:36:10.283Z,31.45
2022-10-14T02:38:38.421Z,30.05
2022-10-14T02:41:08.848Z,30.30
2022-10-14T02:43:36.365Z,29.08
2022-10-14T02:46:06.893Z,30.40
2022-10-14T02:48:34.744Z,31.40
2022-10-14T02:51:03.464Z,29.70
2022-10-14T02:53:31.460Z,30.95
2022-10-14T02:55:59.656Z,33.30
2022-10-14T02:58:27.051Z,31.17
2022-10-14T03:00:57.103Z,31.30
2022-10-14T03:03:25.443Z,31.40
2022-10-14T03:05:52.810Z,30.92
2022-10-14T03:08:22.491Z,29.45
2022-10-14T03:10:49.892Z,29.60
2022-10-14T03:13:17.526Z,28.20
2022-10-14T03:15:49.121Z,28.75
2022-10-14T03:18:17.104Z,28.10
2022-10-14T03:20:47.210Z,27.75
2022-10-14T03:23:20.015Z,20.05
2022-10-14T03:25:51.790Z,27.52
2022-10-14T03:28:26.804Z,32.70
2022-10-14T03:31:05.610Z,33.30
2022-10-14T03:33:59.305Z,28.08
2022-10-14T03:36:28.385Z,28.42
2022-10-14T03:38:57.764Z,29.20
2022-10-14T03:41:38.571Z,29.73
2022-10-14T03:44:07.508Z,29.92
2022-10-14T03:46:37.445Z,29.55
2022-10-14T03:49:04.826Z,29.38
2022-10-14T03:51:33.184Z,29.67
2022-10-14T03:54:13.965Z,32.90
2022-10-14T03:56:43.285Z,43.25
2022-10-14T03:59:10.688Z,30.52
2022-10-14T04:01:38.810Z,29.55
2022-10-14T04:04:16.928Z,30.23
2022-10-14T04:06:45.663Z,29.08
2022-10-14T04:09:13.135Z,29.58
2022-10-14T04:11:43.684Z,29.75
2022-10-14T04:14:24.142Z,31.63
2022-10-14T04:16:51.659Z,32.75
2022-10-14T04:19:19.218Z,31.05
2022-10-14T04:21:46.715Z,30.48
2022-10-14T04:24:17.167Z,29.75
2022-10-14T04:26:52.223Z,30.42
2022-10-14T04:29:31.270Z,29.83
2022-10-14T04:32:07.444Z,31.95
2022-10-14T04:34:36.350Z,33.88
2022-10-14T04:37:05.616Z,45.47
2022-10-14T04:39:54.500Z,36.72
2022-10-14T04:42:24.100Z,35.03
2022-10-14T04:44:55.573Z,26.83
2022-10-14T04:47:30.252Z,34.40
2022-10-14T04:50:01.831Z,34.70
2022-10-14T04:52:31.876Z,39.38
2022-10-14T04:55:12.358Z,40.63
2022-10-14T04:57:44.678Z,36.00
2022-10-14T05:00:13.768Z,35.97
2022-10-14T05:02:54.282Z,33.50
2022-10-14T05:05:27.931Z,33.20
2022-10-14T05:07:58.284Z,32.03
2022-10-14T05:10:34.310Z,32.28
2022-10-14T05:13:05.621Z,31.13
2022-10-14T05:15:37.608Z,31.73
2022-10-14T05:18:12.182Z,30.90
2022-10-14T05:20:59.169Z,29.45
2022-10-14T05:23:33.681Z,30.23
2022-10-14T05:26:02.888Z,31.05
2022-10-14T05:28:31.948Z,29.60
2022-10-14T05:30:59.616Z,30.63
2022-10-14T05:33:27.272Z,30.45
2022-10-14T05:35:59.132Z,27.83
2022-10-14T05:38:32.144Z,28.30
2022-10-14T05:40:59.656Z,28.75
2022-10-14T05:43:32.138Z,30.27
2022-10-14T05:46:02.651Z,29.27
2022-10-14T05:48:34.181Z,22.92
2022-10-14T05:51:03.301Z,34.83
2022-10-14T05:53:32.647Z,34.53
2022-10-14T05:56:05.548Z,38.30
2022-10-14T05:58:33.248Z,44.20
2022-10-14T06:01:03.840Z,41.42
2022-10-14T06:03:31.306Z,37.85
2022-10-14T06:05:58.968Z,32.88
2022-10-14T06:08:27.196Z,30.85
2022-10-14T06:10:55.204Z,31.23
2022-10-14T06:13:23.940Z,34.83
2022-10-14T06:15:52.380Z,34.45
2022-10-14T06:18:21.060Z,33.88
2022-10-14T06:20:52.929Z,31.15
2022-10-14T06:23:20.303Z,33.60
2022-10-14T06:25:47.675Z,34.80
2022-10-14T06:28:15.038Z,33.25
2022-10-14T06:30:42.482Z,33.97
2022-10-14T06:33:09.935Z,32.97
2022-10-14T06:35:38.592Z,31.92
2022-10-14T06:38:05.932Z,30.55
2022-10-14T06:40:33.300Z,31.98
2022-10-14T06:43:00.688Z,32.38
2022-10-14T06:45:28.051Z,31.17
2022-10-14T06:47:55.554Z,35.65
2022-10-14T06:50:23.007Z,32.90
2022-10-14T06:52:51.766Z,32.35
2022-10-14T06:55:19.214Z,32.70
2022-10-14T06:57:46.624Z,31.90
2022-10-14T07:00:14.745Z,34.58
2022-10-14T07:02:42.105Z,33.30
2022-10-14T07:05:10.329Z,30.70
2022-10-14T07:07:37.733Z,30.13
2022-10-14T07:10:07.430Z,30.08
2022-10-14T07:12:34.761Z,30.10
2022-10-14T07:15:02.090Z,31.20
2022-10-14T07:17:29.419Z,30.88
2022-10-14T07:19:56.884Z,31.83
2022-10-14T07:22:24.476Z,31.25
2022-10-14T07:24:52.100Z,30.20
2022-10-14T07:27:21.285Z,30.35
2022-10-14T07:29:48.923Z,30.98
2022-10-14T07:32:16.268Z,30.08
2022-10-14T07:34:43.624Z,30.20
2022-10-14T07:37:11.032Z,28.23
2022-10-14T07:39:38.395Z,29.13
2022-10-14T07:42:06.046Z,28.02
2022-10-14T07:44:34.787Z,27.27
2022-10-14T07:47:03.155Z,28.48
2022-10-14T07:49:30.566Z,30.27
2022-10-14T07:51:57.899Z,29.25
2022-10-14T07:54:29.270Z,28.58
2022-10-14T07:56:57.903Z,29.02
2022-10-14T07:59:25.911Z,28.15
2022-10-14T08:01:56.564Z,28.05
2022-10-14T08:04:25.021Z,27.88
2022-10-14T08:06:53.063Z,27.63
2022-10-14T08:09:20.900Z,27.63
2022-10-14T08:11:48.920Z,27.45
2022-10-14T08:14:16.714Z,26.73
2022-10-14T08:16:44.130Z,27.85
2022-10-14T08:19:14.755Z,26.70
2022-10-14T08:21:43.416Z,26.27
2022-10-14T08:24:11.236Z,25.10
2022-10-14T08:26:39.702Z,23.80
2022-10-14T08:29:10.421Z,24.48
2022-10-14T08:31:37.816Z,23.42
2022-10-14T08:34:05.283Z,24.02
2022-10-14T08:36:34.077Z,22.88
2022-10-14T08:39:01.568Z,20.55
2022-10-14T08:41:42.347Z,19.17
2022-10-14T08:44:16.125Z,21.17
2022-10-14T08:49:18.931Z,18.90
2022-10-14T08:51:52.665Z,17.55
2022-10-14T08:56:53.822Z,17.52
2022-10-14T08:59:22.313Z,19.60
2022-10-14T09:01:53.576Z,19.65
2022-10-14T09:04:21.383Z,17.25
2022-10-14T09:06:51.514Z,16.35
2022-10-14T09:09:23.559Z,16.92
2022-10-14T09:11:54.014Z,17.15
2022-10-14T09:14:24.120Z,18.40
2022-10-14T09:16:54.171Z,19.67
2022-10-14T09:19:28.696Z,17.98
2022-10-14T09:21:57.384Z,19.80
2022-10-14T09:24:26.783Z,19.75
2022-10-14T09:29:29.744Z,20.13
2022-10-14T09:31:59.391Z,20.08
2022-10-14T09:34:31.651Z,18.63
2022-10-14T09:37:11.640Z,17.13
2022-10-14T09:39:40.439Z,18.27
2022-10-14T09:42:14.556Z,19.35
2022-10-14T09:44:42.009Z,18.75
2022-10-14T09:47:13.066Z,17.42
2022-10-14T09:49:42.331Z,19.85
2022-10-14T09:52:21.848Z,18.27
2022-10-14T09:54:53.887Z,17.50
2022-10-14T09:57:21.573Z,17.10
2022-10-14T09:59:53.733Z,19.05
2022-10-14T10:02:23.975Z,18.67
2022-10-14T10:04:52.310Z,17.00
2022-10-14T10:07:29.538Z,17.45
2022-10-14T10:09:57.584Z,18.98
2022-10-14T10:12:28.325Z,19.52
2022-10-14T10:15:00.577Z,18.45
2022-10-14T10:17:28.787Z,18.48
2022-10-14T10:20:08.597Z,16.85
2022-10-14T10:22:38.873Z,18.52
2022-10-14T10:25:19.927Z,14.18
2022-10-14T10:27:49.427Z,15.55
2022-10-14T10:30:23.441Z,13.93
2022-10-14T10:32:57.287Z,15.95
2022-10-14T10:35:28.637Z,13.68
2022-10-14T10:38:06.603Z,13.57
2022-10-14T10:40:39.394Z,15.10
2022-10-14T10:43:18.539Z,13.30
2022-10-14T10:45:59.751Z,15.55
2022-10-14T10:48:33.199Z,12.32
2022-10-14T10:53:46.248Z,14.77
2022-10-14T10:56:20.854Z,14.75
2022-10-14T10:58:57.529Z,14.63
2022-10-14T11:01:36.435Z,14.70
2022-10-14T11:04:18.742Z,14.05
2022-10-14T11:07:09.754Z,13.63
2022-10-14T11:10:00.491Z,13.13
2022-10-14T11:12:33.891Z,14.63
2022-10-14T11:17:51.621Z,15.10
2022-10-14T11:20:25.890Z,12.50
2022-10-14T11:23:07.556Z,14.73
2022-10-14T11:25:44.344Z,14.10
2022-10-14T11:28:15.557Z,15.88
2022-10-14T11:30:49.335Z,15.88
2022-10-14T11:33:25.885Z,15.05
2022-10-14T11:36:02.380Z,15.80
2022-10-14T11:38:48.181Z,15.05
2022-10-14T11:41:25.066Z,14.73
2022-10-14T11:43:57.131Z,13.00
2022-10-14T11:46:29.372Z,9.55
2022-10-14T11:48:58.421Z,8.48
2022-10-14T11:51:35.504Z,9.30
2022-10-14T11:54:04.840Z,9.27
2022-10-14T11:56:40.775Z,9.18
2022-10-14T11:59:27.308Z,8.77
2022-10-14T12:01:59.069Z,10.02
2022-10-14T12:04:29.252Z,8.93
2022-10-14T12:07:02.206Z,8.75
2022-10-14T12:09:38.809Z,8.43
2022-10-14T12:12:09.974Z,8.52
2022-10-14T12:14:40.415Z,8.80
2022-10-14T12:17:14.745Z,8.32
2022-10-14T12:19:45.256Z,9.57
2022-10-14T12:22:17.578Z,8.18
2022-10-14T12:24:48.431Z,9.07
2022-10-14T12:27:18.734Z,8.82
2022-10-14T12:29:49.721Z,8.52
2022-10-14T12:32:24.290Z,8.60
2022-10-14T12:34:54.611Z,9.35
2022-10-14T12:37:43.005Z,9.45
2022-10-14T12:40:28.789Z,9.93
2022-10-14T12:43:14.466Z,9.77
2022-10-14T12:45:49.439Z,9.35
2022-10-14T12:48:19.781Z,9.18
2022-10-14T12:50:48.592Z,10.15
2022-10-14T12:53:21.477Z,9.45
2022-10-14T12:55:50.805Z,8.80
2022-10-14T12:58:27.408Z,8.57
2022-10-14T13:00:57.139Z,8.93
2022-10-14T13:03:27.721Z,7.97
2022-10-14T13:06:28.946Z,8.30
2022-10-14T13:09:39.305Z,8.40
2022-10-14T13:12:40.818Z,7.57
2022-10-14T13:15:41.560Z,7.55
2022-10-14T13:18:35.660Z,8.02
2022-10-14T13:21:03.803Z,8.43
2022-10-14T13:23:37.509Z,7.30
2022-10-14T13:26:18.171Z,7.75
2022-10-14T13:28:49.572Z,8.27
2022-10-14T13:31:19.644Z,8.25
2022-10-14T13:33:52.409Z,8.68
2022-10-14T13:36:23.506Z,7.93
2022-10-14T13:38:54.834Z,8.10
2022-10-14T13:41:29.817Z,8.10
2022-10-14T13:43:59.877Z,7.30
2022-10-14T13:46:30.087Z,7.40
2022-10-14T13:49:00.376Z,7.80
2022-10-14T13:51:37.858Z,7.78
2022-10-14T13:54:18.000Z,7.72
2022-10-14T13:56:45.925Z,7.05
2022-10-14T13:59:43.139Z,7.40
2022-10-14T14:02:15.443Z,7.28
2022-10-14T14:04:51.507Z,6.60
2022-10-14T14:07:47.818Z,6.70
2022-10-14T14:10:10.778Z,6.85
2022-10-14T14:12:38.765Z,6.47
2022-10-14T14:15:07.033Z,5.78
2022-10-14T14:17:35.555Z,6.53
2022-10-14T14:20:10.645Z,6.40
2022-10-14T14:22:42.452Z,6.63
2022-10-14T14:25:33.336Z,5.90
2022-10-14T14:28:02.325Z,6.25
2022-10-14T14:30:32.198Z,6.53
2022-10-14T14:33:02.179Z,6.22
2022-10-14T14:35:30.937Z,5.80
2022-10-14T14:37:58.568Z,5.80
2022-10-14T14:40:27.428Z,6.10
2022-10-14T14:42:57.182Z,5.85
2022-10-14T14:45:26.291Z,5.70
2022-10-14T14:47:55.054Z,5.40
2022-10-14T14:50:31.238Z,5.88
2022-10-14T14:53:02.970Z,5.33
2022-10-14T14:55:42.311Z,5.70
2022-10-14T14:58:21.948Z,6.07
2022-10-14T15:00:49.968Z,6.18
2022-10-14T15:03:17.486Z,6.03
2022-10-14T15:05:50.705Z,6.15
2022-10-14T15:08:22.719Z,6.90
2022-10-14T15:10:52.096Z,5.72
2022-10-14T15:13:32.420Z,4.85
2022-10-14T15:16:00.164Z,5.28
2022-10-14T15:18:28.634Z,6.50
2022-10-14T15:21:18.902Z,7.65
2022-10-14T15:24:02.982Z,6.15
2022-10-14T15:26:34.282Z,5.55
2022-10-14T15:29:15.729Z,5.43
2022-10-14T15:31:45.016Z,4.65
2022-10-14T15:34:17.621Z,5.10
2022-10-14T15:36:45.032Z,5.00
2022-10-14T15:39:15.225Z,5.25
2022-10-14T15:41:43.351Z,7.05
2022-10-14T15:44:10.677Z,7.93
2022-10-14T15:46:56.529Z,8.43
2022-10-14T15:49:27.029Z,8.07
2022-10-14T15:51:54.403Z,6.85
2022-10-14T15:54:27.348Z,6.70
2022-10-14T15:59:28.278Z,5.82
2022-10-14T16:01:55.725Z,5.50
2022-10-14T16:04:24.815Z,7.15
2022-10-14T16:06:54.421Z,7.55
2022-10-14T16:09:22.043Z,8.25
2022-10-14T16:11:57.064Z,8.05
2022-10-14T16:14:24.757Z,11.07
2022-10-14T16:16:52.087Z,9.27
2022-10-14T16:19:19.659Z,9.48
2022-10-14T16:21:50.196Z,14.50
2022-10-14T16:24:18.802Z,15.23
2022-10-14T16:26:46.144Z,10.75
2022-10-14T16:29:18.003Z,8.45
2022-10-14T16:31:46.761Z,7.95
2022-10-14T16:34:14.354Z,9.00
2022-10-14T16:36:42.313Z,8.40
2022-10-14T16:39:10.171Z,9.32
2022-10-14T16:41:37.575Z,12.57
2022-10-14T16:44:05.861Z,13.05
2022-10-14T16:46:52.643Z,11.50
2022-10-14T16:49:20.041Z,15.02
2022-10-14T16:51:47.368Z,16.77
2022-10-14T16:54:14.694Z,18.48
2022-10-14T16:56:55.358Z,18.05
2022-10-14T16:59:23.247Z,13.52
2022-10-14T17:01:52.075Z,23.15
2022-10-14T17:04:20.109Z,21.50
2022-10-14T17:06:51.972Z,21.92
2022-10-14T17:09:20.143Z,15.75
2022-10-14T17:11:49.680Z,15.27
2022-10-14T17:14:19.240Z,16.15
2022-10-14T17:16:50.331Z,14.63
2022-10-14T17:19:19.637Z,14.07
2022-10-14T17:21:48.704Z,15.63
2022-10-14T17:24:16.965Z,16.90
2022-10-14T17:26:45.405Z,15.15
2022-10-14T17:29:12.825Z,14.40
2022-10-14T17:31:40.181Z,14.25
2022-10-14T17:34:09.490Z,14.93
2022-10-14T17:36:38.811Z,17.10
2022-10-14T17:39:06.361Z,17.10
2022-10-14T17:41:33.759Z,16.52
2022-10-14T17:44:02.013Z,16.35
2022-10-14T17:46:31.355Z,16.30
2022-10-14T17:49:00.015Z,15.52
2022-10-14T17:51:28.538Z,14.23
2022-10-14T17:53:59.049Z,14.95
2022-10-14T17:56:27.610Z,15.48
2022-10-14T17:58:55.383Z,15.40
2022-10-14T18:01:36.840Z,16.70
2022-10-14T18:04:06.690Z,16.13
2022-10-14T18:06:35.174Z,15.95
2022-10-14T18:09:06.243Z,16.02
2022-10-14T18:12:03.469Z,16.25
2022-10-14T18:14:26.627Z,16.67
2022-10-14T18:16:54.067Z,15.65
2022-10-14T18:19:21.528Z,14.70
2022-10-14T18:21:48.896Z,14.85
2022-10-14T18:24:17.542Z,14.07
2022-10-14T18:26:44.896Z,13.85
2022-10-14T18:29:12.219Z,13.30
2022-10-14T18:31:39.888Z,13.18
2022-10-14T18:34:10.432Z,13.57
2022-10-14T18:36:38.288Z,13.25
2022-10-14T18:39:08.068Z,13.98
2022-10-14T18:41:37.407Z,13.85
2022-10-14T18:44:05.364Z,13.50
2022-10-14T18:46:34.022Z,13.70
2022-10-14T18:49:02.528Z,13.95
2022-10-14T18:51:31.651Z,13.73
2022-10-14T18:54:00.721Z,12.82
2022-10-14T18:56:30.464Z,14.00
2022-10-14T18:59:00.955Z,13.57
2022-10-14T19:01:29.930Z,13.73
2022-10-14T19:03:57.731Z,14.23
2022-10-14T19:06:25.099Z,14.65
2022-10-14T19:08:52.850Z,14.70
2022-10-14T19:11:21.730Z,13.82
2022-10-14T19:13:51.819Z,13.57
2022-10-14T19:16:22.774Z,13.02
2022-10-14T19:18:53.302Z,12.68
2022-10-14T19:21:22.408Z,12.18
2022-10-14T19:23:50.763Z,12.60
2022-10-14T19:26:20.230Z,12.00
2022-10-14T19:28:49.568Z,12.60
2022-10-14T19:31:20.939Z,15.13
2022-10-14T19:33:48.807Z,12.55
2022-10-14T19:36:17.809Z,13.23
2022-10-14T19:38:46.953Z,12.88
2022-10-14T19:41:14.320Z,12.80
2022-10-14T19:43:41.664Z,12.30
2022-10-14T19:46:10.792Z,12.57
2022-10-14T19:48:39.714Z,13.40
2022-10-14T19:51:09.167Z,13.32
2022-10-14T19:53:36.796Z,13.18
2022-10-14T19:56:04.742Z,13.32
2022-10-14T19:58:32.192Z,13.77
2022-10-14T20:00:59.610Z,13.63
2022-10-14T20:03:27.210Z,14.88
2022-10-14T20:06:02.402Z,13.77
2022-10-14T20:08:30.056Z,13.65
2022-10-14T20:10:57.618Z,15.00
2022-10-14T20:13:25.044Z,14.85
2022-10-14T20:15:56.137Z,15.70
2022-10-14T20:18:23.624Z,16.45
2022-10-14T20:20:51.105Z,16.20
2022-10-14T20:23:20.169Z,16.85
2022-10-14T20:25:47.994Z,17.35
2022-10-14T20:28:19.326Z,16.95
2022-10-14T20:30:47.671Z,16.98
2022-10-14T20:33:15.331Z,17.60
2022-10-14T20:35:42.682Z,17.58
2022-10-14T20:38:10.029Z,18.52
2022-10-14T20:40:38.734Z,19.35
2022-10-14T20:43:06.082Z,18.88
2022-10-14T20:45:33.842Z,19.38
2022-10-14T20:48:01.368Z,19.15
2022-10-14T20:50:28.709Z,19.27
2022-10-14T20:52:56.030Z,20.60
2022-10-14T20:55:23.356Z,21.30
2022-10-14T20:57:51.983Z,21.17
2022-10-14T21:00:19.555Z,21.17
2022-10-14T21:02:46.883Z,22.30
2022-10-14T21:05:14.454Z,21.38
2022-10-14T21:07:41.873Z,22.45
2022-10-14T21:10:09.857Z,22.23
2022-10-14T21:12:37.196Z,22.63
2022-10-14T21:15:06.754Z,23.20
2022-10-14T21:17:34.094Z,23.63
2022-10-14T21:20:01.622Z,22.95
2022-10-14T21:22:29.161Z,23.77
2022-10-14T21:24:56.544Z,23.85
2022-10-14T21:27:24.163Z,24.05
2022-10-14T21:29:51.822Z,25.58
2022-10-14T21:32:20.701Z,25.23
2022-10-14T21:34:48.275Z,25.23
2022-10-14T21:37:17.882Z,23.80
2022-10-14T21:39:45.256Z,24.48
2022-10-14T21:42:14.240Z,24.75
2022-10-14T21:44:41.628Z,24.55
2022-10-14T21:47:09.291Z,25.67
2022-10-14T21:49:38.011Z,25.73
2022-10-14T21:52:05.932Z,24.90
2022-10-14T21:54:33.313Z,25.23
2022-10-14T21:57:00.639Z,25.40
2022-10-14T21:59:27.971Z,25.20
2022-10-14T22:01:56.893Z,25.52
2022-10-14T22:04:25.224Z,26.38
2022-10-14T22:06:53.968Z,26.83
2022-10-14T22:09:21.295Z,26.60
2022-10-14T22:11:48.632Z,27.40
2022-10-14T22:14:17.553Z,27.10
2022-10-14T22:16:45.367Z,28.15
2022-10-14T22:19:13.478Z,26.83
2022-10-14T22:21:42.958Z,26.60
2022-10-14T22:24:11.741Z,24.95
2022-10-14T22:26:40.365Z,26.23
2022-10-14T22:29:11.278Z,25.98
2022-10-14T22:31:38.631Z,27.58
2022-10-14T22:34:07.829Z,26.50
2022-10-14T22:36:36.146Z,27.40
2022-10-14T22:39:05.933Z,26.20
2022-10-14T22:41:35.925Z,26.42
2022-10-14T22:44:04.397Z,27.08
2022-10-14T22:46:34.761Z,26.95
2022-10-14T22:49:02.335Z,25.92
2022-10-14T22:51:31.184Z,26.98
2022-10-14T22:53:58.579Z,26.27
2022-10-14T22:56:28.211Z,25.30
2022-10-14T22:58:57.957Z,26.85
2022-10-14T23:01:27.540Z,26.92
2022-10-14T23:03:55.351Z,27.70
2022-10-14T23:06:22.725Z,26.88
2022-10-14T23:08:50.123Z,27.95
2022-10-14T23:11:19.156Z,27.30
2022-10-14T23:13:47.357Z,29.10
2022-10-14T23:16:17.643Z,27.88
2022-10-14T23:18:45.551Z,27.48
2022-10-14T23:21:14.680Z,28.10
2022-10-14T23:23:42.325Z,26.88
2022-10-14T23:26:10.490Z,27.63
2022-10-14T23:28:37.956Z,27.63
2022-10-14T23:31:12.548Z,27.27
2022-10-14T23:33:41.535Z,26.33
2022-10-14T23:36:11.139Z,27.00
2022-10-14T23:38:39.686Z,26.27
2022-10-14T23:41:08.083Z,27.17
2022-10-14T23:43:35.566Z,25.40
2022-10-14T23:46:03.293Z,26.65
2022-10-14T23:48:30.720Z,26.30
2022-10-14T23:50:59.529Z,25.55
2022-10-14T23:53:27.193Z,26.15
2022-10-14T23:55:54.859Z,25.83
2022-10-14T23:58:22.311Z,25.85
